sensor_id;sensor_type;location;lat;lon;timestamp;P1;durP1;ratioP1;P2;durP2;ratioP2
313;SDS011;143;51.634;7.112;2023-04-29T00:00:53;47.23;;;24.30;;
313;SDS011;143;51.634;7.112;2023-04-29T00:03:20;49.53;;;24.07;;
313;SDS011;143;51.634;7.112;2023-04-29T00:05:45;56.87;;;26.13;;
313;SDS011;143;51.634;7.112;2023-04-29T00:08:11;55.57;;;25.10;;
313;SDS011;143;51.634;7.112;2023-04-29T00:10:37;66.20;;;29.30;;
313;SDS011;143;51.634;7.112;2023-04-29T00:13:03;62.67;;;28.37;;
313;SDS011;143;51.634;7.112;2023-04-29T00:15:29;70.97;;;30.30;;
313;SDS011;143;51.634;7.112;2023-04-29T00:17:54;69.67;;;29.80;;
313;SDS011;143;51.634;7.112;2023-04-29T00:20:20;73.83;;;31.57;;
313;SDS011;143;51.634;7.112;2023-04-29T00:22:46;75.53;;;31.80;;
313;SDS011;143;51.634;7.112;2023-04-29T00:25:12;70.73;;;31.13;;
313;SDS011;143;51.634;7.112;2023-04-29T00:27:37;82.40;;;34.43;;
313;SDS011;143;51.634;7.112;2023-04-29T00:30:04;66.00;;;29.90;;
313;SDS011;143;51.634;7.112;2023-04-29T00:32:33;72.53;;;31.30;;
313;SDS011;143;51.634;7.112;2023-04-29T00:34:58;75.47;;;32.03;;
313;SDS011;143;51.634;7.112;2023-04-29T00:37:24;65.70;;;31.00;;
313;SDS011;143;51.634;7.112;2023-04-29T00:39:50;74.03;;;32.33;;
313;SDS011;143;51.634;7.112;2023-04-29T00:42:15;89.37;;;35.37;;
313;SDS011;143;51.634;7.112;2023-04-29T00:44:41;76.77;;;35.43;;
313;SDS011;143;51.634;7.112;2023-04-29T00:47:07;84.90;;;36.07;;
313;SDS011;143;51.634;7.112;2023-04-29T00:49:36;77.27;;;37.13;;
313;SDS011;143;51.634;7.112;2023-04-29T00:52:03;88.87;;;36.53;;
313;SDS011;143;51.634;7.112;2023-04-29T00:54:31;70.03;;;34.13;;
313;SDS011;143;51.634;7.112;2023-04-29T00:56:59;82.23;;;34.73;;
313;SDS011;143;51.634;7.112;2023-04-29T00:59:27;74.57;;;35.40;;
313;SDS011;143;51.634;7.112;2023-04-29T01:01:57;81.37;;;37.90;;
313;SDS011;143;51.634;7.112;2023-04-29T01:04:24;74.87;;;36.23;;
313;SDS011;143;51.634;7.112;2023-04-29T01:15:34;105.50;;;42.97;;
313;SDS011;143;51.634;7.112;2023-04-29T01:20:39;92.30;;;39.07;;
313;SDS011;143;51.634;7.112;2023-04-29T01:23:06;91.30;;;39.60;;
313;SDS011;143;51.634;7.112;2023-04-29T01:25:31;90.80;;;38.00;;
313;SDS011;143;51.634;7.112;2023-04-29T01:33:33;87.37;;;39.53;;
313;SDS011;143;51.634;7.112;2023-04-29T01:36:31;83.37;;;36.90;;
313;SDS011;143;51.634;7.112;2023-04-29T01:42:14;99.07;;;40.50;;
313;SDS011;143;51.634;7.112;2023-04-29T01:44:49;93.87;;;37.50;;
313;SDS011;143;51.634;7.112;2023-04-29T01:47:17;106.07;;;40.73;;
313;SDS011;143;51.634;7.112;2023-04-29T01:49:43;95.40;;;41.60;;
313;SDS011;143;51.634;7.112;2023-04-29T01:52:10;72.83;;;33.77;;
313;SDS011;143;51.634;7.112;2023-04-29T01:54:37;89.27;;;37.00;;
313;SDS011;143;51.634;7.112;2023-04-29T01:57:02;76.07;;;35.50;;
313;SDS011;143;51.634;7.112;2023-04-29T01:59:28;77.37;;;36.67;;
313;SDS011;143;51.634;7.112;2023-04-29T02:01:54;71.13;;;31.90;;
313;SDS011;143;51.634;7.112;2023-04-29T02:04:26;72.97;;;31.13;;
313;SDS011;143;51.634;7.112;2023-04-29T02:06:52;55.23;;;26.07;;
313;SDS011;143;51.634;7.112;2023-04-29T02:09:18;60.60;;;27.83;;
313;SDS011;143;51.634;7.112;2023-04-29T02:11:44;57.50;;;25.97;;
313;SDS011;143;51.634;7.112;2023-04-29T02:14:09;51.60;;;25.93;;
313;SDS011;143;51.634;7.112;2023-04-29T02:16:36;55.57;;;25.63;;
313;SDS011;143;51.634;7.112;2023-04-29T02:19:02;51.83;;;23.30;;
313;SDS011;143;51.634;7.112;2023-04-29T02:21:28;53.33;;;24.53;;
313;SDS011;143;51.634;7.112;2023-04-29T02:23:53;48.40;;;23.00;;
313;SDS011;143;51.634;7.112;2023-04-29T02:26:19;54.40;;;25.70;;
313;SDS011;143;51.634;7.112;2023-04-29T02:28:45;46.97;;;22.97;;
313;SDS011;143;51.634;7.112;2023-04-29T02:31:11;43.40;;;22.37;;
313;SDS011;143;51.634;7.112;2023-04-29T02:33:37;47.00;;;22.80;;
313;SDS011;143;51.634;7.112;2023-04-29T02:36:03;48.27;;;24.90;;
313;SDS011;143;51.634;7.112;2023-04-29T02:38:29;38.30;;;21.27;;
313;SDS011;143;51.634;7.112;2023-04-29T02:40:55;48.07;;;22.17;;
313;SDS011;143;51.634;7.112;2023-04-29T02:43:21;47.90;;;23.57;;
313;SDS011;143;51.634;7.112;2023-04-29T02:45:47;52.93;;;25.40;;
313;SDS011;143;51.634;7.112;2023-04-29T02:48:12;44.10;;;22.40;;
313;SDS011;143;51.634;7.112;2023-04-29T02:50:38;44.97;;;23.17;;
313;SDS011;143;51.634;7.112;2023-04-29T02:53:04;42.90;;;21.93;;
313;SDS011;143;51.634;7.112;2023-04-29T02:55:30;57.63;;;23.30;;
313;SDS011;143;51.634;7.112;2023-04-29T02:57:55;45.90;;;22.37;;
313;SDS011;143;51.634;7.112;2023-04-29T03:00:21;45.90;;;23.20;;
313;SDS011;143;51.634;7.112;2023-04-29T03:02:47;52.70;;;24.40;;
313;SDS011;143;51.634;7.112;2023-04-29T03:05:13;47.53;;;23.87;;
313;SDS011;143;51.634;7.112;2023-04-29T03:07:39;49.20;;;23.10;;
313;SDS011;143;51.634;7.112;2023-04-29T03:10:05;50.27;;;23.13;;
313;SDS011;143;51.634;7.112;2023-04-29T03:12:31;51.40;;;25.23;;
313;SDS011;143;51.634;7.112;2023-04-29T03:14:57;41.50;;;21.03;;
313;SDS011;143;51.634;7.112;2023-04-29T03:17:23;43.43;;;21.57;;
313;SDS011;143;51.634;7.112;2023-04-29T03:19:49;42.03;;;22.10;;
313;SDS011;143;51.634;7.112;2023-04-29T03:22:17;39.63;;;21.33;;
313;SDS011;143;51.634;7.112;2023-04-29T03:24:42;40.90;;;21.77;;
313;SDS011;143;51.634;7.112;2023-04-29T03:27:08;42.27;;;22.30;;
313;SDS011;143;51.634;7.112;2023-04-29T03:29:35;45.37;;;22.83;;
313;SDS011;143;51.634;7.112;2023-04-29T03:32:00;50.93;;;23.47;;
313;SDS011;143;51.634;7.112;2023-04-29T03:34:27;41.93;;;21.50;;
313;SDS011;143;51.634;7.112;2023-04-29T03:36:52;42.20;;;21.97;;
313;SDS011;143;51.634;7.112;2023-04-29T03:39:18;43.70;;;21.43;;
313;SDS011;143;51.634;7.112;2023-04-29T03:41:45;47.73;;;22.33;;
313;SDS011;143;51.634;7.112;2023-04-29T03:44:11;41.83;;;22.87;;
313;SDS011;143;51.634;7.112;2023-04-29T03:46:37;43.23;;;21.80;;
313;SDS011;143;51.634;7.112;2023-04-29T03:49:03;41.37;;;23.43;;
313;SDS011;143;51.634;7.112;2023-04-29T03:51:28;43.33;;;22.40;;
313;SDS011;143;51.634;7.112;2023-04-29T03:53:54;41.97;;;22.30;;
313;SDS011;143;51.634;7.112;2023-04-29T03:56:21;41.20;;;22.57;;
313;SDS011;143;51.634;7.112;2023-04-29T03:58:49;41.33;;;22.30;;
313;SDS011;143;51.634;7.112;2023-04-29T04:01:17;35.93;;;20.30;;
313;SDS011;143;51.634;7.112;2023-04-29T04:03:43;44.90;;;22.23;;
313;SDS011;143;51.634;7.112;2023-04-29T04:06:09;41.73;;;23.03;;
313;SDS011;143;51.634;7.112;2023-04-29T04:08:35;43.90;;;23.20;;
313;SDS011;143;51.634;7.112;2023-04-29T04:11:01;42.50;;;23.20;;
313;SDS011;143;51.634;7.112;2023-04-29T04:13:29;39.90;;;21.60;;
313;SDS011;143;51.634;7.112;2023-04-29T04:15:55;39.57;;;21.53;;
313;SDS011;143;51.634;7.112;2023-04-29T04:18:21;40.87;;;22.30;;
313;SDS011;143;51.634;7.112;2023-04-29T04:20:47;44.77;;;24.90;;
313;SDS011;143;51.634;7.112;2023-04-29T04:23:13;43.30;;;24.43;;
313;SDS011;143;51.634;7.112;2023-04-29T04:25:47;44.23;;;22.30;;
313;SDS011;143;51.634;7.112;2023-04-29T04:28:13;43.03;;;23.90;;
313;SDS011;143;51.634;7.112;2023-04-29T04:30:40;42.70;;;23.27;;
313;SDS011;143;51.634;7.112;2023-04-29T04:33:06;39.63;;;21.63;;
313;SDS011;143;51.634;7.112;2023-04-29T04:35:32;41.93;;;22.93;;
313;SDS011;143;51.634;7.112;2023-04-29T04:37:58;51.27;;;24.00;;
313;SDS011;143;51.634;7.112;2023-04-29T04:40:23;43.70;;;22.93;;
313;SDS011;143;51.634;7.112;2023-04-29T04:42:49;46.13;;;24.43;;
313;SDS011;143;51.634;7.112;2023-04-29T04:45:15;40.07;;;22.43;;
313;SDS011;143;51.634;7.112;2023-04-29T04:47:41;43.43;;;22.73;;
313;SDS011;143;51.634;7.112;2023-04-29T04:50:07;42.63;;;22.60;;
313;SDS011;143;51.634;7.112;2023-04-29T04:52:33;38.20;;;21.60;;
313;SDS011;143;51.634;7.112;2023-04-29T04:54:59;41.60;;;23.20;;
313;SDS011;143;51.634;7.112;2023-04-29T04:57:24;42.03;;;22.47;;
313;SDS011;143;51.634;7.112;2023-04-29T04:59:50;39.73;;;20.90;;
313;SDS011;143;51.634;7.112;2023-04-29T05:02:16;40.80;;;22.47;;
313;SDS011;143;51.634;7.112;2023-04-29T05:04:42;40.03;;;21.93;;
313;SDS011;143;51.634;7.112;2023-04-29T05:07:08;40.67;;;22.83;;
313;SDS011;143;51.634;7.112;2023-04-29T05:09:34;38.20;;;22.73;;
313;SDS011;143;51.634;7.112;2023-04-29T05:12:00;40.33;;;22.93;;
313;SDS011;143;51.634;7.112;2023-04-29T05:14:26;40.93;;;23.80;;
313;SDS011;143;51.634;7.112;2023-04-29T05:16:52;38.80;;;21.50;;
313;SDS011;143;51.634;7.112;2023-04-29T05:19:18;37.63;;;21.80;;
313;SDS011;143;51.634;7.112;2023-04-29T05:21:44;43.50;;;21.97;;
313;SDS011;143;51.634;7.112;2023-04-29T05:24:10;41.33;;;21.83;;
313;SDS011;143;51.634;7.112;2023-04-29T05:26:35;34.47;;;21.90;;
313;SDS011;143;51.634;7.112;2023-04-29T05:29:02;38.27;;;21.60;;
313;SDS011;143;51.634;7.112;2023-04-29T05:31:27;35.93;;;21.63;;
313;SDS011;143;51.634;7.112;2023-04-29T05:33:53;34.67;;;21.77;;
313;SDS011;143;51.634;7.112;2023-04-29T05:36:19;37.33;;;24.60;;
313;SDS011;143;51.634;7.112;2023-04-29T05:38:44;37.00;;;21.13;;
313;SDS011;143;51.634;7.112;2023-04-29T05:41:10;39.77;;;21.53;;
313;SDS011;143;51.634;7.112;2023-04-29T05:43:36;39.53;;;21.70;;
313;SDS011;143;51.634;7.112;2023-04-29T05:46:01;36.37;;;22.23;;
313;SDS011;143;51.634;7.112;2023-04-29T05:48:27;44.63;;;22.07;;
313;SDS011;143;51.634;7.112;2023-04-29T05:50:54;36.07;;;21.07;;
313;SDS011;143;51.634;7.112;2023-04-29T05:53:19;37.77;;;22.50;;
313;SDS011;143;51.634;7.112;2023-04-29T05:55:45;38.67;;;22.93;;
313;SDS011;143;51.634;7.112;2023-04-29T05:58:11;36.80;;;22.70;;
313;SDS011;143;51.634;7.112;2023-04-29T06:00:38;42.17;;;24.20;;
313;SDS011;143;51.634;7.112;2023-04-29T06:03:04;39.37;;;22.43;;
313;SDS011;143;51.634;7.112;2023-04-29T06:05:30;36.43;;;20.27;;
313;SDS011;143;51.634;7.112;2023-04-29T06:07:56;38.03;;;21.43;;
313;SDS011;143;51.634;7.112;2023-04-29T06:10:22;43.20;;;22.77;;
313;SDS011;143;51.634;7.112;2023-04-29T06:12:48;37.43;;;22.13;;
313;SDS011;143;51.634;7.112;2023-04-29T06:15:15;41.07;;;21.63;;
313;SDS011;143;51.634;7.112;2023-04-29T06:17:41;40.53;;;22.43;;
313;SDS011;143;51.634;7.112;2023-04-29T06:20:07;38.47;;;22.50;;
313;SDS011;143;51.634;7.112;2023-04-29T06:22:33;39.47;;;19.60;;
313;SDS011;143;51.634;7.112;2023-04-29T06:24:59;42.80;;;22.80;;
313;SDS011;143;51.634;7.112;2023-04-29T06:27:27;41.93;;;23.10;;
313;SDS011;143;51.634;7.112;2023-04-29T06:29:55;35.07;;;21.27;;
313;SDS011;143;51.634;7.112;2023-04-29T06:32:28;45.70;;;22.10;;
313;SDS011;143;51.634;7.112;2023-04-29T06:34:58;47.77;;;24.43;;
313;SDS011;143;51.634;7.112;2023-04-29T06:37:25;39.17;;;22.17;;
313;SDS011;143;51.634;7.112;2023-04-29T06:40:00;42.87;;;23.53;;
313;SDS011;143;51.634;7.112;2023-04-29T06:42:30;41.90;;;25.07;;
313;SDS011;143;51.634;7.112;2023-04-29T06:44:56;43.53;;;24.90;;
313;SDS011;143;51.634;7.112;2023-04-29T06:47:23;41.33;;;22.93;;
313;SDS011;143;51.634;7.112;2023-04-29T06:49:50;45.03;;;27.60;;
313;SDS011;143;51.634;7.112;2023-04-29T06:52:17;54.30;;;28.57;;
313;SDS011;143;51.634;7.112;2023-04-29T06:54:43;44.67;;;24.63;;
313;SDS011;143;51.634;7.112;2023-04-29T06:57:09;40.33;;;24.50;;
313;SDS011;143;51.634;7.112;2023-04-29T06:59:35;58.27;;;27.60;;
313;SDS011;143;51.634;7.112;2023-04-29T07:02:01;38.83;;;22.40;;
313;SDS011;143;51.634;7.112;2023-04-29T07:04:27;42.70;;;24.40;;
313;SDS011;143;51.634;7.112;2023-04-29T07:06:54;43.73;;;25.83;;
313;SDS011;143;51.634;7.112;2023-04-29T07:09:21;45.57;;;23.37;;
313;SDS011;143;51.634;7.112;2023-04-29T07:11:50;44.73;;;25.33;;
313;SDS011;143;51.634;7.112;2023-04-29T07:14:17;43.13;;;24.80;;
313;SDS011;143;51.634;7.112;2023-04-29T07:16:43;53.83;;;27.33;;
313;SDS011;143;51.634;7.112;2023-04-29T07:19:09;40.73;;;23.17;;
313;SDS011;143;51.634;7.112;2023-04-29T07:21:35;53.10;;;27.97;;
313;SDS011;143;51.634;7.112;2023-04-29T07:24:00;43.17;;;24.83;;
313;SDS011;143;51.634;7.112;2023-04-29T07:26:29;46.23;;;25.90;;
313;SDS011;143;51.634;7.112;2023-04-29T07:28:55;46.63;;;25.17;;
313;SDS011;143;51.634;7.112;2023-04-29T07:31:20;41.60;;;23.60;;
313;SDS011;143;51.634;7.112;2023-04-29T07:33:46;52.17;;;24.77;;
313;SDS011;143;51.634;7.112;2023-04-29T07:36:12;51.83;;;26.10;;
313;SDS011;143;51.634;7.112;2023-04-29T07:38:38;55.97;;;26.70;;
313;SDS011;143;51.634;7.112;2023-04-29T07:41:04;83.40;;;27.47;;
313;SDS011;143;51.634;7.112;2023-04-29T07:43:30;63.03;;;27.30;;
313;SDS011;143;51.634;7.112;2023-04-29T07:45:55;55.83;;;27.90;;
313;SDS011;143;51.634;7.112;2023-04-29T07:48:21;50.60;;;24.63;;
313;SDS011;143;51.634;7.112;2023-04-29T07:50:47;58.13;;;26.60;;
313;SDS011;143;51.634;7.112;2023-04-29T07:53:13;52.40;;;26.33;;
313;SDS011;143;51.634;7.112;2023-04-29T07:55:40;54.47;;;26.47;;
313;SDS011;143;51.634;7.112;2023-04-29T07:58:05;57.83;;;28.00;;
313;SDS011;143;51.634;7.112;2023-04-29T08:00:31;59.57;;;27.50;;
313;SDS011;143;51.634;7.112;2023-04-29T08:02:57;45.53;;;26.17;;
313;SDS011;143;51.634;7.112;2023-04-29T08:05:23;68.73;;;26.77;;
313;SDS011;143;51.634;7.112;2023-04-29T08:07:50;60.10;;;28.00;;
313;SDS011;143;51.634;7.112;2023-04-29T08:10:16;55.63;;;26.70;;
313;SDS011;143;51.634;7.112;2023-04-29T08:12:45;55.13;;;26.50;;
313;SDS011;143;51.634;7.112;2023-04-29T08:15:12;52.00;;;26.30;;
313;SDS011;143;51.634;7.112;2023-04-29T08:17:38;66.60;;;28.80;;
313;SDS011;143;51.634;7.112;2023-04-29T08:20:04;57.13;;;27.20;;
313;SDS011;143;51.634;7.112;2023-04-29T08:22:31;48.97;;;25.60;;
313;SDS011;143;51.634;7.112;2023-04-29T08:24:57;52.13;;;27.60;;
313;SDS011;143;51.634;7.112;2023-04-29T08:27:23;64.33;;;30.80;;
313;SDS011;143;51.634;7.112;2023-04-29T08:29:49;62.70;;;26.30;;
313;SDS011;143;51.634;7.112;2023-04-29T08:32:15;52.80;;;27.60;;
313;SDS011;143;51.634;7.112;2023-04-29T08:34:40;63.63;;;26.00;;
313;SDS011;143;51.634;7.112;2023-04-29T08:37:06;55.27;;;26.00;;
313;SDS011;143;51.634;7.112;2023-04-29T08:39:32;50.87;;;26.00;;
313;SDS011;143;51.634;7.112;2023-04-29T08:41:57;51.90;;;28.80;;
313;SDS011;143;51.634;7.112;2023-04-29T08:44:27;54.90;;;26.97;;
313;SDS011;143;51.634;7.112;2023-04-29T08:46:54;66.63;;;29.00;;
313;SDS011;143;51.634;7.112;2023-04-29T08:49:22;62.70;;;27.90;;
313;SDS011;143;51.634;7.112;2023-04-29T08:51:48;49.37;;;27.23;;
313;SDS011;143;51.634;7.112;2023-04-29T08:54:18;57.00;;;28.97;;
313;SDS011;143;51.634;7.112;2023-04-29T08:56:44;59.57;;;28.80;;
313;SDS011;143;51.634;7.112;2023-04-29T08:59:15;58.87;;;26.83;;
313;SDS011;143;51.634;7.112;2023-04-29T09:01:42;54.67;;;27.90;;
313;SDS011;143;51.634;7.112;2023-04-29T09:04:11;54.20;;;28.93;;
313;SDS011;143;51.634;7.112;2023-04-29T09:06:40;47.30;;;25.60;;
313;SDS011;143;51.634;7.112;2023-04-29T09:09:06;49.73;;;25.93;;
313;SDS011;143;51.634;7.112;2023-04-29T09:11:33;53.27;;;27.07;;
313;SDS011;143;51.634;7.112;2023-04-29T09:14:01;54.40;;;28.40;;
313;SDS011;143;51.634;7.112;2023-04-29T09:16:28;48.30;;;24.27;;
313;SDS011;143;51.634;7.112;2023-04-29T09:18:54;41.47;;;24.87;;
313;SDS011;143;51.634;7.112;2023-04-29T09:21:22;47.90;;;24.40;;
313;SDS011;143;51.634;7.112;2023-04-29T09:23:51;41.17;;;23.20;;
313;SDS011;143;51.634;7.112;2023-04-29T09:26:18;58.87;;;26.27;;
313;SDS011;143;51.634;7.112;2023-04-29T09:28:45;49.13;;;25.53;;
313;SDS011;143;51.634;7.112;2023-04-29T09:31:12;42.73;;;22.90;;
313;SDS011;143;51.634;7.112;2023-04-29T09:33:51;41.03;;;22.67;;
313;SDS011;143;51.634;7.112;2023-04-29T09:39:05;44.53;;;23.70;;
313;SDS011;143;51.634;7.112;2023-04-29T09:41:39;40.00;;;22.13;;
313;SDS011;143;51.634;7.112;2023-04-29T09:44:06;46.30;;;23.00;;
313;SDS011;143;51.634;7.112;2023-04-29T09:46:34;39.27;;;21.40;;
313;SDS011;143;51.634;7.112;2023-04-29T09:49:03;39.73;;;21.33;;
313;SDS011;143;51.634;7.112;2023-04-29T09:51:29;36.17;;;21.40;;
313;SDS011;143;51.634;7.112;2023-04-29T09:53:59;44.77;;;23.33;;
313;SDS011;143;51.634;7.112;2023-04-29T09:56:27;44.50;;;21.33;;
313;SDS011;143;51.634;7.112;2023-04-29T09:58:55;35.47;;;21.40;;
313;SDS011;143;51.634;7.112;2023-04-29T10:01:33;34.33;;;20.83;;
313;SDS011;143;51.634;7.112;2023-04-29T10:03:59;37.53;;;21.93;;
313;SDS011;143;51.634;7.112;2023-04-29T10:06:25;34.10;;;20.53;;
313;SDS011;143;51.634;7.112;2023-04-29T10:08:52;34.73;;;19.90;;
313;SDS011;143;51.634;7.112;2023-04-29T10:11:18;31.37;;;19.87;;
313;SDS011;143;51.634;7.112;2023-04-29T10:13:45;36.07;;;18.57;;
313;SDS011;143;51.634;7.112;2023-04-29T10:18:48;36.13;;;19.37;;
313;SDS011;143;51.634;7.112;2023-04-29T10:21:17;33.37;;;19.27;;
313;SDS011;143;51.634;7.112;2023-04-29T10:23:48;35.20;;;18.83;;
313;SDS011;143;51.634;7.112;2023-04-29T10:26:14;32.97;;;20.30;;
313;SDS011;143;51.634;7.112;2023-04-29T10:28:42;24.07;;;17.00;;
313;SDS011;143;51.634;7.112;2023-04-29T10:31:10;31.10;;;18.77;;
313;SDS011;143;51.634;7.112;2023-04-29T10:33:37;36.13;;;19.97;;
313;SDS011;143;51.634;7.112;2023-04-29T10:36:08;37.00;;;19.47;;
313;SDS011;143;51.634;7.112;2023-04-29T10:38:47;33.60;;;20.20;;
313;SDS011;143;51.634;7.112;2023-04-29T10:41:20;36.23;;;21.30;;
313;SDS011;143;51.634;7.112;2023-04-29T10:43:52;34.30;;;18.93;;
313;SDS011;143;51.634;7.112;2023-04-29T10:46:19;29.47;;;18.00;;
313;SDS011;143;51.634;7.112;2023-04-29T10:49:01;28.20;;;18.00;;
313;SDS011;143;51.634;7.112;2023-04-29T10:54:14;25.53;;;14.53;;
313;SDS011;143;51.634;7.112;2023-04-29T10:56:42;26.60;;;15.67;;
313;SDS011;143;51.634;7.112;2023-04-29T10:59:12;22.50;;;15.20;;
313;SDS011;143;51.634;7.112;2023-04-29T11:01:40;30.73;;;16.20;;
313;SDS011;143;51.634;7.112;2023-04-29T11:04:09;21.20;;;14.17;;
313;SDS011;143;51.634;7.112;2023-04-29T11:11:55;23.00;;;13.13;;
313;SDS011;143;51.634;7.112;2023-04-29T11:14:29;22.43;;;14.00;;
313;SDS011;143;51.634;7.112;2023-04-29T11:16:57;17.80;;;13.60;;
313;SDS011;143;51.634;7.112;2023-04-29T11:19:25;23.30;;;13.60;;
313;SDS011;143;51.634;7.112;2023-04-29T11:22:23;32.23;;;14.10;;
313;SDS011;143;51.634;7.112;2023-04-29T11:24:51;21.13;;;13.53;;
313;SDS011;143;51.634;7.112;2023-04-29T11:27:23;20.30;;;12.73;;
313;SDS011;143;51.634;7.112;2023-04-29T11:29:50;24.53;;;13.80;;
313;SDS011;143;51.634;7.112;2023-04-29T11:32:22;19.30;;;13.40;;
313;SDS011;143;51.634;7.112;2023-04-29T11:34:50;21.90;;;13.40;;
313;SDS011;143;51.634;7.112;2023-04-29T11:37:21;21.60;;;14.30;;
313;SDS011;143;51.634;7.112;2023-04-29T11:39:49;23.83;;;13.07;;
313;SDS011;143;51.634;7.112;2023-04-29T11:42:22;27.03;;;13.67;;
313;SDS011;143;51.634;7.112;2023-04-29T11:44:50;18.50;;;12.00;;
313;SDS011;143;51.634;7.112;2023-04-29T11:47:16;18.40;;;12.37;;
313;SDS011;143;51.634;7.112;2023-04-29T11:49:42;25.33;;;12.53;;
313;SDS011;143;51.634;7.112;2023-04-29T11:52:07;21.70;;;11.77;;
313;SDS011;143;51.634;7.112;2023-04-29T11:54:33;20.13;;;13.13;;
313;SDS011;143;51.634;7.112;2023-04-29T11:56:59;23.10;;;11.47;;
313;SDS011;143;51.634;7.112;2023-04-29T11:59:29;19.00;;;11.53;;
313;SDS011;143;51.634;7.112;2023-04-29T12:01:57;22.30;;;12.10;;
313;SDS011;143;51.634;7.112;2023-04-29T12:04:26;16.70;;;11.80;;
313;SDS011;143;51.634;7.112;2023-04-29T12:06:51;19.30;;;12.50;;
313;SDS011;143;51.634;7.112;2023-04-29T12:09:17;21.03;;;11.53;;
313;SDS011;143;51.634;7.112;2023-04-29T12:11:43;14.00;;;9.77;;
313;SDS011;143;51.634;7.112;2023-04-29T12:14:14;18.20;;;11.10;;
313;SDS011;143;51.634;7.112;2023-04-29T12:16:40;16.30;;;11.53;;
313;SDS011;143;51.634;7.112;2023-04-29T12:19:06;17.17;;;10.60;;
313;SDS011;143;51.634;7.112;2023-04-29T12:21:34;16.50;;;10.27;;
313;SDS011;143;51.634;7.112;2023-04-29T12:24:01;16.93;;;9.57;;
313;SDS011;143;51.634;7.112;2023-04-29T12:26:27;17.20;;;9.27;;
313;SDS011;143;51.634;7.112;2023-04-29T12:28:56;16.27;;;9.00;;
313;SDS011;143;51.634;7.112;2023-04-29T12:31:23;14.27;;;9.53;;
313;SDS011;143;51.634;7.112;2023-04-29T12:33:57;19.57;;;8.17;;
313;SDS011;143;51.634;7.112;2023-04-29T12:36:22;15.47;;;8.30;;
313;SDS011;143;51.634;7.112;2023-04-29T12:38:48;12.80;;;8.50;;
313;SDS011;143;51.634;7.112;2023-04-29T12:41:14;14.33;;;8.83;;
313;SDS011;143;51.634;7.112;2023-04-29T12:43:41;20.33;;;8.67;;
313;SDS011;143;51.634;7.112;2023-04-29T12:46:08;14.10;;;8.97;;
313;SDS011;143;51.634;7.112;2023-04-29T12:48:36;16.93;;;9.27;;
313;SDS011;143;51.634;7.112;2023-04-29T12:51:03;11.63;;;8.07;;
313;SDS011;143;51.634;7.112;2023-04-29T12:53:29;11.87;;;7.93;;
313;SDS011;143;51.634;7.112;2023-04-29T12:55:56;18.23;;;9.57;;
313;SDS011;143;51.634;7.112;2023-04-29T12:58:22;14.10;;;8.60;;
313;SDS011;143;51.634;7.112;2023-04-29T13:00:48;14.17;;;9.20;;
313;SDS011;143;51.634;7.112;2023-04-29T13:03:14;17.57;;;10.10;;
313;SDS011;143;51.634;7.112;2023-04-29T13:05:40;13.87;;;8.47;;
313;SDS011;143;51.634;7.112;2023-04-29T13:08:05;16.30;;;9.17;;
313;SDS011;143;51.634;7.112;2023-04-29T13:10:32;12.90;;;8.10;;
313;SDS011;143;51.634;7.112;2023-04-29T13:12:58;15.77;;;9.57;;
313;SDS011;143;51.634;7.112;2023-04-29T13:15:25;16.00;;;9.37;;
313;SDS011;143;51.634;7.112;2023-04-29T13:17:51;10.90;;;7.33;;
313;SDS011;143;51.634;7.112;2023-04-29T13:20:17;13.80;;;8.37;;
313;SDS011;143;51.634;7.112;2023-04-29T13:22:44;13.37;;;8.47;;
313;SDS011;143;51.634;7.112;2023-04-29T13:25:10;14.07;;;7.50;;
313;SDS011;143;51.634;7.112;2023-04-29T13:27:36;10.20;;;6.93;;
313;SDS011;143;51.634;7.112;2023-04-29T13:30:03;14.10;;;7.00;;
313;SDS011;143;51.634;7.112;2023-04-29T13:32:30;11.37;;;6.37;;
313;SDS011;143;51.634;7.112;2023-04-29T13:34:56;13.80;;;7.10;;
313;SDS011;143;51.634;7.112;2023-04-29T13:37:21;13.27;;;7.90;;
313;SDS011;143;51.634;7.112;2023-04-29T13:39:47;11.47;;;8.00;;
313;SDS011;143;51.634;7.112;2023-04-29T13:42:13;14.90;;;9.43;;
313;SDS011;143;51.634;7.112;2023-04-29T13:44:39;12.63;;;7.87;;
313;SDS011;143;51.634;7.112;2023-04-29T13:47:11;22.07;;;10.20;;
313;SDS011;143;51.634;7.112;2023-04-29T13:49:40;14.60;;;8.23;;
313;SDS011;143;51.634;7.112;2023-04-29T13:52:08;19.57;;;9.40;;
313;SDS011;143;51.634;7.112;2023-04-29T13:54:34;11.40;;;7.97;;
313;SDS011;143;51.634;7.112;2023-04-29T13:57:01;14.47;;;9.20;;
313;SDS011;143;51.634;7.112;2023-04-29T13:59:30;13.23;;;6.80;;
313;SDS011;143;51.634;7.112;2023-04-29T14:01:59;11.70;;;5.97;;
313;SDS011;143;51.634;7.112;2023-04-29T14:04:25;10.13;;;7.00;;
313;SDS011;143;51.634;7.112;2023-04-29T14:06:52;10.50;;;6.10;;
313;SDS011;143;51.634;7.112;2023-04-29T14:09:18;11.47;;;6.80;;
313;SDS011;143;51.634;7.112;2023-04-29T14:11:46;9.53;;;6.70;;
313;SDS011;143;51.634;7.112;2023-04-29T14:14:12;11.77;;;7.23;;
313;SDS011;143;51.634;7.112;2023-04-29T14:16:38;15.10;;;6.07;;
313;SDS011;143;51.634;7.112;2023-04-29T14:19:04;10.17;;;6.90;;
313;SDS011;143;51.634;7.112;2023-04-29T14:21:31;16.20;;;9.17;;
313;SDS011;143;51.634;7.112;2023-04-29T14:23:57;21.63;;;10.60;;
313;SDS011;143;51.634;7.112;2023-04-29T14:26:23;14.07;;;8.13;;
313;SDS011;143;51.634;7.112;2023-04-29T14:28:50;10.73;;;7.10;;
313;SDS011;143;51.634;7.112;2023-04-29T14:31:21;14.33;;;8.10;;
313;SDS011;143;51.634;7.112;2023-04-29T14:33:52;13.33;;;8.90;;
313;SDS011;143;51.634;7.112;2023-04-29T14:36:18;13.30;;;8.10;;
313;SDS011;143;51.634;7.112;2023-04-29T14:38:44;18.10;;;7.63;;
313;SDS011;143;51.634;7.112;2023-04-29T14:41:10;18.03;;;9.33;;
313;SDS011;143;51.634;7.112;2023-04-29T14:43:36;14.87;;;7.80;;
313;SDS011;143;51.634;7.112;2023-04-29T14:46:01;15.20;;;8.80;;
313;SDS011;143;51.634;7.112;2023-04-29T14:48:27;16.90;;;7.97;;
313;SDS011;143;51.634;7.112;2023-04-29T14:50:53;11.13;;;7.97;;
313;SDS011;143;51.634;7.112;2023-04-29T14:53:19;14.00;;;9.47;;
313;SDS011;143;51.634;7.112;2023-04-29T14:55:46;19.00;;;8.57;;
313;SDS011;143;51.634;7.112;2023-04-29T14:58:13;12.10;;;7.47;;
313;SDS011;143;51.634;7.112;2023-04-29T15:00:39;14.60;;;8.17;;
313;SDS011;143;51.634;7.112;2023-04-29T15:03:04;20.83;;;9.13;;
313;SDS011;143;51.634;7.112;2023-04-29T15:05:30;14.30;;;8.40;;
313;SDS011;143;51.634;7.112;2023-04-29T15:07:56;15.43;;;8.47;;
313;SDS011;143;51.634;7.112;2023-04-29T15:10:23;15.40;;;7.70;;
313;SDS011;143;51.634;7.112;2023-04-29T15:12:49;16.60;;;7.67;;
313;SDS011;143;51.634;7.112;2023-04-29T15:15:16;11.30;;;6.57;;
313;SDS011;143;51.634;7.112;2023-04-29T15:17:42;15.33;;;7.60;;
313;SDS011;143;51.634;7.112;2023-04-29T15:20:08;13.47;;;7.77;;
313;SDS011;143;51.634;7.112;2023-04-29T15:22:35;9.60;;;6.60;;
313;SDS011;143;51.634;7.112;2023-04-29T15:25:01;12.27;;;8.13;;
313;SDS011;143;51.634;7.112;2023-04-29T15:27:27;15.07;;;8.10;;
313;SDS011;143;51.634;7.112;2023-04-29T15:29:53;13.00;;;6.90;;
313;SDS011;143;51.634;7.112;2023-04-29T15:32:21;10.50;;;6.27;;
313;SDS011;143;51.634;7.112;2023-04-29T15:34:48;15.70;;;7.17;;
313;SDS011;143;51.634;7.112;2023-04-29T15:37:14;14.10;;;6.80;;
313;SDS011;143;51.634;7.112;2023-04-29T15:39:40;11.43;;;7.03;;
313;SDS011;143;51.634;7.112;2023-04-29T15:42:06;13.97;;;7.73;;
313;SDS011;143;51.634;7.112;2023-04-29T15:44:33;17.70;;;6.50;;
313;SDS011;143;51.634;7.112;2023-04-29T15:46:59;13.80;;;6.20;;
313;SDS011;143;51.634;7.112;2023-04-29T15:49:24;9.37;;;6.00;;
313;SDS011;143;51.634;7.112;2023-04-29T15:51:50;10.13;;;6.13;;